Wilson Clyde — 8PRV — position and weather

sailwx.info

Track history (hours):
 
Tides and Currents Weather Stations Pressure Air Temp Water Temp Dewpoint Dewpoint Depression Visibility Wind Speed Wind Dir Waves Ship Positions

Wilson Clyde

Last reported at 2016-Jun-01 03:26 UTC. Time now 2016-Jun-01 05:37 UTC.
Position N 49°60' W 006°39'.

Length 100 m; draft 5.2 m.

Type: Cargo ship. MMSI: 314187000.

Date/timePositionNaut miles runAvg speedWind from/ knotsBaromVisibWave heightAir tempDewpointWater temp
2016-Jun-01 03:26N 49°60' W 006°39'2510.6
2016-Jun-01 01:06N 49°36' W 006°47'  
2016-May-28 06:08N 39°33' W 009°49'3112.1
2016-May-28 03:33N 39°02' W 009°50'1311.8
2016-May-28 02:30N 38°50' W 009°50'1310.7
2016-May-28 01:15N 38°37' W 009°46'810.9
2016-May-28 00:31N 38°32' W 009°37'1010.8
2016-May-27 23:33N 38°27' W 009°26'1111.3
2016-May-27 22:33N 38°21' W 009°14'1111.0
2016-May-27 21:33N 38°26' W 009°01'9 1.5
2016-May-27 15:15N 38°30' W 008°51'0 0.0
2016-May-27 14:18N 38°30' W 008°51'0 0.0
2016-May-27 12:18N 38°30' W 008°51'0 0.0
2016-May-27 11:18N 38°30' W 008°51'0 0.0
2016-May-27 10:24N 38°30' W 008°51'0 0.0
2016-May-27 09:30N 38°30' W 008°51'0 0.0
2016-May-27 06:12N 38°30' W 008°51'0 0.0
2016-May-27 03:30N 38°30' W 008°51'0 0.0
2016-May-26 20:21N 38°30' W 008°51'0 0.0
2016-May-26 17:33N 38°30' W 008°51'0 0.0
2016-May-26 16:30N 38°30' W 008°51'0 0.0
2016-May-26 08:18N 38°30' W 008°51'0 0.0
2016-May-25 19:17N 38°30' W 008°51'0 0.0
2016-May-25 18:33N 38°30' W 008°51'0 0.0
2016-May-25 17:32N 38°30' W 008°51'0 0.0
2016-May-25 16:23N 38°30' W 008°51'3 0.9
2016-May-25 13:32N 38°31' W 008°54'0 0.0
2016-May-25 12:26N 38°31' W 008°54'0 0.0
2016-May-25 11:20N 38°31' W 008°54'0 0.0
2016-May-25 10:33N 38°31' W 008°54'0 0.1
2016-May-25 09:32N 38°31' W 008°54'0 0.0
2016-May-25 08:33N 38°31' W 008°54'0 0.0
2016-May-25 04:17N 38°31' W 008°54'0 0.0
2016-May-25 03:14N 38°31' W 008°54'0 0.0
2016-May-25 01:17N 38°31' W 008°54'0 0.0
2016-May-25 00:27N 38°31' W 008°54'0 0.0
2016-May-24 23:29N 38°31' W 008°54'0 0.0
2016-May-24 20:17N 38°31' W 008°54'0 0.0
2016-May-24 19:32N 38°31' W 008°54'0 0.1
2016-May-24 17:27N 38°31' W 008°54'0 0.0
2016-May-24 16:17N 38°31' W 008°54'0 0.0
2016-May-24 15:29N 38°31' W 008°54'0 0.0
2016-May-24 14:29N 38°31' W 008°54'0 0.0
2016-May-24 13:29N 38°31' W 008°54'0 0.0
2016-May-24 12:11N 38°31' W 008°54'0 0.0
2016-May-24 11:32N 38°31' W 008°54'0 0.0
2016-May-24 10:29N 38°31' W 008°54'0 0.0
2016-May-24 06:23N 38°31' W 008°54'0 0.1
2016-May-24 05:23N 38°31' W 008°54'0 0.1
2016-May-24 04:30N 38°31' W 008°54'0 0.0
2016-May-24 03:30N 38°31' W 008°54'0 0.0
2016-May-24 02:32N 38°31' W 008°54'0 0.0
2016-May-24 01:27N 38°31' W 008°54'0 0.0
2016-May-24 00:32N 38°31' W 008°54'0 0.0
2016-May-23 23:32N 38°31' W 008°54'0 0.0
2016-May-23 22:32N 38°31' W 008°54'0 0.1
2016-May-23 21:33N 38°31' W 008°54'4 4.3
2016-May-23 20:33N 38°28' W 008°58'8 8.0
2016-May-23 19:33N 38°23' W 009°06'1110.6
2016-May-23 18:33N 38°21' W 009°20'1211.6
2016-May-23 17:33N 38°26' W 009°33'1212.4
2016-May-23 16:33N 38°30' W 009°48'1212.1
2016-May-23 15:33N 38°35' W 010°02'1111.2
2016-May-23 14:33N 38°46' W 010°05'1111.1
2016-May-23 13:33N 38°57' W 010°05'  
Track history (hours):
 
Tides and Currents Weather Stations Pressure Air Temp Water Temp Dewpoint Dewpoint Depression Visibility Wind Speed Wind Dir Waves Ship Positions

Wilson Clyde

Last reported at 2016-Jun-01 03:26 UTC. Time now 2016-Jun-01 05:37 UTC.
Position N 49°60' W 006°39'.

Length 100 m; draft 5.2 m.

Type: Cargo ship. MMSI: 314187000.

Date/timePositionNaut miles runAvg speedWind from/ knotsBaromVisibWave heightAir tempDewpointWater temp
2016-Jun-01 03:26N 49°60' W 006°39'2510.6
2016-Jun-01 01:06N 49°36' W 006°47'  
2016-May-28 06:08N 39°33' W 009°49'3112.1
2016-May-28 03:33N 39°02' W 009°50'1311.8
2016-May-28 02:30N 38°50' W 009°50'1310.7
2016-May-28 01:15N 38°37' W 009°46'810.9
2016-May-28 00:31N 38°32' W 009°37'1010.8
2016-May-27 23:33N 38°27' W 009°26'1111.3
2016-May-27 22:33N 38°21' W 009°14'1111.0
2016-May-27 21:33N 38°26' W 009°01'9 1.5
2016-May-27 15:15N 38°30' W 008°51'0 0.0
2016-May-27 14:18N 38°30' W 008°51'0 0.0
2016-May-27 12:18N 38°30' W 008°51'0 0.0
2016-May-27 11:18N 38°30' W 008°51'0 0.0
2016-May-27 10:24N 38°30' W 008°51'0 0.0
2016-May-27 09:30N 38°30' W 008°51'0 0.0
2016-May-27 06:12N 38°30' W 008°51'0 0.0
2016-May-27 03:30N 38°30' W 008°51'0 0.0
2016-May-26 20:21N 38°30' W 008°51'0 0.0
2016-May-26 17:33N 38°30' W 008°51'0 0.0
2016-May-26 16:30N 38°30' W 008°51'0 0.0
2016-May-26 08:18N 38°30' W 008°51'0 0.0
2016-May-25 19:17N 38°30' W 008°51'0 0.0
2016-May-25 18:33N 38°30' W 008°51'0 0.0
2016-May-25 17:32N 38°30' W 008°51'0 0.0
2016-May-25 16:23N 38°30' W 008°51'3 0.9
2016-May-25 13:32N 38°31' W 008°54'0 0.0
2016-May-25 12:26N 38°31' W 008°54'0 0.0
2016-May-25 11:20N 38°31' W 008°54'0 0.0
2016-May-25 10:33N 38°31' W 008°54'0 0.1
2016-May-25 09:32N 38°31' W 008°54'0 0.0
2016-May-25 08:33N 38°31' W 008°54'0 0.0
2016-May-25 04:17N 38°31' W 008°54'0 0.0
2016-May-25 03:14N 38°31' W 008°54'0 0.0
2016-May-25 01:17N 38°31' W 008°54'0 0.0
2016-May-25 00:27N 38°31' W 008°54'0 0.0
2016-May-24 23:29N 38°31' W 008°54'0 0.0
2016-May-24 20:17N 38°31' W 008°54'0 0.0
2016-May-24 19:32N 38°31' W 008°54'0 0.1
2016-May-24 17:27N 38°31' W 008°54'0 0.0
2016-May-24 16:17N 38°31' W 008°54'0 0.0
2016-May-24 15:29N 38°31' W 008°54'0 0.0
2016-May-24 14:29N 38°31' W 008°54'0 0.0
2016-May-24 13:29N 38°31' W 008°54'0 0.0
2016-May-24 12:11N 38°31' W 008°54'0 0.0
2016-May-24 11:32N 38°31' W 008°54'0 0.0
2016-May-24 10:29N 38°31' W 008°54'0 0.0
2016-May-24 06:23N 38°31' W 008°54'0 0.1
2016-May-24 05:23N 38°31' W 008°54'0 0.1
2016-May-24 04:30N 38°31' W 008°54'0 0.0
2016-May-24 03:30N 38°31' W 008°54'0 0.0
2016-May-24 02:32N 38°31' W 008°54'0 0.0
2016-May-24 01:27N 38°31' W 008°54'0 0.0
2016-May-24 00:32N 38°31' W 008°54'0 0.0
2016-May-23 23:32N 38°31' W 008°54'0 0.0
2016-May-23 22:32N 38°31' W 008°54'0 0.1
2016-May-23 21:33N 38°31' W 008°54'4 4.3
2016-May-23 20:33N 38°28' W 008°58'8 8.0
2016-May-23 19:33N 38°23' W 009°06'1110.6
2016-May-23 18:33N 38°21' W 009°20'1211.6
2016-May-23 17:33N 38°26' W 009°33'1212.4
2016-May-23 16:33N 38°30' W 009°48'1212.1
2016-May-23 15:33N 38°35' W 010°02'1111.2
2016-May-23 14:33N 38°46' W 010°05'1111.1
2016-May-23 13:33N 38°57' W 010°05'  

Dump ship's entire track history